Time;durP1;ratioP1;P1;durP2;ratioP2;P2;SDS_P1;SDS_P2;PMS_P1;PMS_P2;Temp;Humidity;BMP_temperature;BMP_pressure;BME280_temperature;BME280_humidity;BME280_pressure;Samples;Min_cycle;Max_cycle;Signal;HPM_P1;HPM_P2
2022/12/27 00:01:31;;;;;;;5.33;2.40;;;;;;;1.20;100.00;99759.66;1686635;83;21556;-53
2022/12/27 00:03:57;;;;;;;3.33;2.50;;;;;;;1.21;100.00;99766.73;1668118;85;21063;-55
2022/12/27 00:06:25;;;;;;;4.50;2.80;;;;;;;1.22;100.00;99769.38;1677954;83;21160;-56
2022/12/27 00:08:53;;;;;;;5.93;2.07;;;;;;;1.24;100.00;99771.56;1673773;84;21150;-55
2022/12/27 00:11:22;;;;;;;2.90;1.70;;;;;;;1.25;100.00;99766.70;1682332;84;21394;-54
2022/12/27 00:13:49;;;;;;;4.37;1.77;;;;;;;1.27;100.00;99765.36;1683289;84;22314;-55
2022/12/27 00:16:19;;;;;;;3.43;2.07;;;;;;;1.27;100.00;99760.94;1679229;84;21644;-54
2022/12/27 00:18:46;;;;;;;3.53;2.20;;;;;;;1.29;100.00;99759.57;1681866;84;21073;-55
2022/12/27 00:21:12;;;;;;;3.10;2.10;;;;;;;1.30;100.00;99751.60;1675597;83;21515;-55
2022/12/27 00:23:43;;;;;;;3.93;1.80;;;;;;;1.31;100.00;99756.02;1675799;84;21348;-55
2022/12/27 00:26:19;;;;;;;2.93;2.30;;;;;;;1.32;100.00;99761.75;1678659;84;21054;-55
2022/12/27 00:28:46;;;;;;;6.20;2.43;;;;;;;1.33;100.00;99748.05;1676088;85;21053;-56
2022/12/27 00:31:13;;;;;;;4.67;2.03;;;;;;;1.35;100.00;99738.31;1645463;86;21059;-54
2022/12/27 00:33:41;;;;;;;4.17;2.20;;;;;;;1.35;100.00;99731.68;1678390;84;21651;-54
2022/12/27 00:36:11;;;;;;;5.67;2.53;;;;;;;1.36;100.00;99728.14;1727956;82;21990;-55
2022/12/27 00:38:38;;;;;;;2.73;2.23;;;;;;;1.37;100.00;99718.80;1700151;82;21040;-54
2022/12/27 00:41:05;;;;;;;4.43;1.97;;;;;;;1.38;100.00;99721.89;1721454;81;21520;-55
2022/12/27 00:43:31;;;;;;;3.50;2.73;;;;;;;1.39;100.00;99722.77;1722494;82;21681;-55
2022/12/27 00:45:58;;;;;;;3.30;2.40;;;;;;;1.40;100.00;99713.48;1725714;82;22016;-56
2022/12/27 00:48:24;;;;;;;3.43;2.37;;;;;;;1.40;100.00;99717.45;1718846;81;21954;-55
2022/12/27 00:50:57;;;;;;;4.13;2.83;;;;;;;1.40;100.00;99706.84;1721885;82;21053;-55
2022/12/27 00:53:24;;;;;;;5.57;3.17;;;;;;;1.42;100.00;99717.00;1715969;82;21435;-54
2022/12/27 00:58:12;;;;;;;3.33;2.67;;;;;;;1.46;100.00;99689.52;1828530;76;27476;-55
2022/12/27 01:00:39;;;;;;;9.93;4.03;;;;;;;1.44;100.00;99713.01;1798811;78;21513;-56
2022/12/27 01:03:05;;;;;;;4.20;3.03;;;;;;;1.43;100.00;99709.92;1795783;77;21920;-56
2022/12/27 01:05:36;;;;;;;5.07;3.53;;;;;;;1.41;100.00;99711.26;1797800;78;21282;-57
2022/12/27 01:08:04;;;;;;;5.17;3.40;;;;;;;1.40;100.00;99713.48;1780000;78;22372;-55
2022/12/27 01:10:31;;;;;;;3.07;2.40;;;;;;;1.38;100.00;99713.94;1799429;78;21061;-54
2022/12/27 01:13:01;;;;;;;5.37;3.50;;;;;;;1.37;100.00;99708.20;1794271;78;21032;-55
2022/12/27 01:15:28;;;;;;;6.63;3.63;;;;;;;1.36;100.00;99694.98;1767272;79;21717;-55
2022/12/27 01:17:54;;;;;;;4.70;3.20;;;;;;;1.35;100.00;99694.11;1745066;81;21485;-57
2022/12/27 01:20:21;;;;;;;4.93;3.03;;;;;;;1.36;100.00;99689.68;1762055;80;21028;-56
2022/12/27 01:22:47;;;;;;;3.80;2.57;;;;;;;1.36;100.00;99687.87;1741299;80;21118;-56
2022/12/27 01:25:13;;;;;;;3.50;3.20;;;;;;;1.37;100.00;99684.78;1746712;80;21465;-56
2022/12/27 01:27:40;;;;;;;3.83;2.97;;;;;;;1.37;100.00;99679.03;1747275;80;22993;-56
2022/12/27 01:30:08;;;;;;;4.37;2.63;;;;;;;1.39;100.00;99668.41;1734707;80;21485;-56
2022/12/27 01:32:35;;;;;;;3.20;2.90;;;;;;;1.39;100.00;99671.05;1741799;81;20977;-55
2022/12/27 01:35:01;;;;;;;4.27;3.00;;;;;;;1.40;100.00;99659.11;1736723;80;21403;-56
2022/12/27 01:37:28;;;;;;;3.03;2.47;;;;;;;1.39;100.00;99654.70;1763089;80;20981;-55
2022/12/27 01:39:55;;;;;;;4.20;2.80;;;;;;;1.39;100.00;99644.09;1740788;80;21826;-57
2022/12/27 01:45:23;;;;;;;3.33;2.37;;;;;;;1.40;100.00;99629.94;1746342;80;20957;-56
2022/12/27 01:48:04;;;;;;;4.92;3.27;;;;;;;1.43;100.00;99629.02;1735928;80;20962;-57
2022/12/27 01:50:44;;;;;;;3.67;2.60;;;;;;;1.44;100.00;99613.55;1748199;80;21015;-54
2022/12/27 01:53:26;;;;;;;4.87;2.30;;;;;;;1.43;100.00;99606.48;1740440;80;22543;-55
2022/12/27 01:56:00;;;;;;;4.67;2.90;;;;;;;1.45;100.00;99605.53;1746385;80;21540;-55
2022/12/27 01:58:43;;;;;;;3.73;2.80;;;;;;;1.45;100.00;99601.56;1735009;81;21451;-55
2022/12/27 02:01:15;;;;;;;4.03;2.80;;;;;;;1.47;100.00;99600.22;1765542;79;20981;-55
2022/12/27 02:03:51;;;;;;;4.83;3.33;;;;;;;1.46;100.00;99595.36;1740183;80;21596;-58
2022/12/27 02:06:18;;;;;;;4.13;2.20;;;;;;;1.45;100.00;99593.60;1738148;81;23727;-57
2022/12/27 02:09:14;;;;;;;2.57;2.20;;;;;;;1.45;100.00;99596.25;1734489;81;21867;-55
2022/12/27 02:11:50;;;;;;;3.60;2.77;;;;;;;1.46;100.00;99595.36;1744337;80;21048;-58
2022/12/27 02:14:35;;;;;;;2.80;2.20;;;;;;;1.48;100.00;99593.57;1746712;80;21079;-55
2022/12/27 02:17:09;;;;;;;2.67;1.82;;;;;;;1.50;100.00;99586.47;1741651;81;21489;-58
2022/12/27 02:19:59;;;;;;;4.20;2.70;;;;;;;1.53;100.00;99586.89;1732642;81;21818;-55
2022/12/27 02:25:48;;;;;;;3.20;2.07;;;;;;;1.58;100.00;99576.20;1749391;80;21482;-55
2022/12/27 02:28:52;;;;;;;2.10;1.90;;;;;;;1.58;100.00;99566.91;1734657;81;21473;-58
2022/12/27 02:31:23;;;;;;;2.87;2.53;;;;;;;1.60;100.00;99558.48;1740157;81;21405;-54
2022/12/27 02:33:50;;;;;;;2.47;2.27;;;;;;;1.62;100.00;99557.98;1737143;81;21771;-55
2022/12/27 02:36:24;;;;;;;2.30;1.93;;;;;;;1.63;100.00;99551.78;1738352;81;21044;-55
2022/12/27 02:38:54;;;;;;;2.60;1.83;;;;;;;1.64;100.00;99556.20;1733937;81;21065;-57
2022/12/27 02:53:16;;;;;;;2.63;1.77;;;;;;;1.68;100.00;99540.22;1753806;80;21340;-56
2022/12/27 02:59:18;;;;;;;2.33;2.10;;;;;;;1.69;100.00;99534.47;1741835;81;21159;-56
2022/12/27 03:05:06;;;;;;;3.73;2.40;;;;;;;1.71;100.00;99513.63;1747246;80;21065;-58
2022/12/27 03:08:10;;;;;;;3.12;2.45;;;;;;;1.71;100.00;99510.97;1717798;81;21034;-55
2022/12/27 03:16:40;;;;;;;3.33;3.03;;;;;;;1.71;100.00;99514.95;1733762;81;21900;-59
2022/12/27 03:27:29;;;;;;;2.27;2.07;;;;;;;1.73;100.00;99508.30;1736394;81;20986;-54
2022/12/27 03:38:45;;;;;;;2.67;2.47;;;;;;;1.78;100.00;99497.17;1737561;81;21081;-55
2022/12/27 03:43:56;;;;;;;2.07;1.93;;;;;;;1.81;100.00;99493.11;1739948;81;21832;-55
2022/12/27 03:46:34;;;;;;;3.00;1.90;;;;;;;1.81;100.00;99498.42;1739491;81;21065;-57
2022/12/27 03:49:21;;;;;;;3.60;3.03;;;;;;;1.83;100.00;99496.63;1732082;81;21573;-55
2022/12/27 03:51:55;;;;;;;2.83;2.47;;;;;;;1.84;100.00;99486.44;1737767;81;21080;-54
2022/12/27 03:54:25;;;;;;;3.50;2.30;;;;;;;1.84;100.00;99484.66;1732966;81;21481;-54
2022/12/27 03:56:56;;;;;;;2.63;2.13;;;;;;;1.85;100.00;99483.77;1734774;80;21413;-57
2022/12/27 03:59:22;;;;;;;3.70;2.60;;;;;;;1.86;100.00;99477.56;1759055;80;21023;-58
2022/12/27 04:01:49;;;;;;;3.20;2.90;;;;;;;1.86;100.00;99459.43;1753585;80;21063;-54
2022/12/27 04:04:15;;;;;;;5.17;2.83;;;;;;;1.87;100.00;99466.02;1747947;80;21081;-54
2022/12/27 04:06:42;;;;;;;2.83;2.63;;;;;;;1.89;100.00;99464.66;1756238;80;21674;-55
2022/12/27 04:36:40;;;;;;;4.50;3.67;;;;;;;2.03;100.00;99440.54;1756109;80;21793;-55
2022/12/27 04:39:07;;;;;;;3.40;3.10;;;;;;;2.04;100.00;99445.80;1758188;80;21027;-54
2022/12/27 04:55:22;;;;;;;6.63;5.13;;;;;;;2.15;100.00;99402.66;1752920;80;21071;-57
2022/12/27 04:57:49;;;;;;;7.70;4.77;;;;;;;2.18;100.00;99401.73;1742805;80;21709;-58
2022/12/27 05:03:06;;;;;;;8.17;5.40;;;;;;;2.20;100.00;99412.76;1735911;81;21907;-58
2022/12/27 05:05:33;;;;;;;7.33;5.20;;;;;;;2.22;100.00;99409.59;1741004;81;20982;-56
2022/12/27 05:16:18;;;;;;;8.38;5.75;;;;;;;2.32;100.00;99416.92;1739273;81;23037;-55
2022/12/27 05:18:44;;;;;;;6.30;5.60;;;;;;;2.36;100.00;99411.99;1758731;80;21514;-57
2022/12/27 05:21:11;;;;;;;8.53;6.47;;;;;;;2.38;100.00;99411.97;1750731;80;21143;-55
2022/12/27 05:26:26;;;;;;;9.17;6.73;;;;;;;2.42;100.00;99414.96;1733733;81;21589;-55
2022/12/27 05:28:55;;;;;;;5.93;5.33;;;;;;;2.45;100.00;99411.80;1723804;82;22530;-55
2022/12/27 05:31:23;;;;;;;9.07;6.60;;;;;;;2.48;100.00;99414.37;1741744;82;21546;-57
2022/12/27 05:33:50;;;;;;;7.57;6.87;;;;;;;2.50;100.00;99417.88;1734808;81;20969;-54
2022/12/27 05:36:16;;;;;;;8.50;6.83;;;;;;;2.52;100.00;99419.18;1739725;81;21089;-54
2022/12/27 05:38:42;;;;;;;10.83;7.60;;;;;;;2.54;100.00;99416.92;1735715;80;21506;-56
2022/12/27 05:41:09;;;;;;;8.50;7.07;;;;;;;2.56;100.00;99422.17;1739335;81;21958;-57
2022/12/27 05:43:35;;;;;;;8.60;7.77;;;;;;;2.58;100.00;99424.36;1736070;81;21116;-56
2022/12/27 05:46:14;;;;;;;9.33;7.83;;;;;;;2.59;100.00;99421.67;1738173;81;21353;-56
2022/12/27 05:48:41;;;;;;;10.37;7.63;;;;;;;2.61;100.00;99421.64;1737989;81;21017;-57
2022/12/27 05:51:12;;;;;;;12.10;8.30;;;;;;;2.63;100.00;99421.17;1717007;82;21059;-57
2022/12/27 05:53:39;;;;;;;9.37;7.97;;;;;;;2.67;100.00;99424.16;1747619;80;21864;-57
2022/12/27 05:56:06;;;;;;;12.53;9.17;;;;;;;2.68;100.00;99415.28;1732949;81;22712;-55
2022/12/27 05:58:33;;;;;;;9.10;6.93;;;;;;;2.70;100.00;99410.82;1737098;81;21075;-56
2022/12/27 06:01:00;;;;;;;12.03;9.27;;;;;;;2.71;100.00;99411.24;1745949;81;21395;-58
2022/12/27 06:03:26;;;;;;;10.40;9.00;;;;;;;2.75;100.00;99406.27;1740120;80;21079;-57
2022/12/27 06:06:01;;;;;;;11.43;10.17;;;;;;;2.76;100.00;99399.17;1740749;81;21887;-56
2022/12/27 06:08:29;;;;;;;11.23;8.50;;;;;;;2.77;100.00;99403.12;1733415;81;21044;-58
2022/12/27 06:11:08;;;;;;;12.97;9.23;;;;;;;2.82;100.00;99401.67;1734077;81;21073;-56
2022/12/27 06:13:36;;;;;;;11.23;8.20;;;;;;;2.83;100.00;99400.77;1740672;81;21022;-59
2022/12/27 06:16:03;;;;;;;12.43;9.10;;;;;;;2.85;100.00;99391.86;1736667;81;21046;-57
2022/12/27 06:18:32;;;;;;;13.97;10.30;;;;;;;2.87;100.00;99407.33;1738341;81;21752;-57
2022/12/27 06:21:16;;;;;;;10.80;9.07;;;;;;;2.88;100.00;99405.09;1743360;81;21586;-57
2022/12/27 06:23:45;;;;;;;14.18;11.03;;;;;;;2.90;100.00;99405.03;1738702;81;21056;-57
2022/12/27 06:26:21;;;;;;;15.20;9.97;;;;;;;2.91;100.00;99411.66;1735586;81;21068;-56
2022/12/27 06:28:48;;;;;;;15.87;11.13;;;;;;;2.93;100.00;99413.83;1730468;81;21072;-56
2022/12/27 06:31:17;;;;;;;12.00;10.47;;;;;;;2.95;100.00;99425.31;1738583;81;21813;-56
2022/12/27 06:33:45;;;;;;;16.30;10.77;;;;;;;2.95;100.00;99416.00;1739751;81;21044;-55
2022/12/27 06:36:13;;;;;;;14.13;11.27;;;;;;;2.97;100.00;99414.64;1734385;81;21099;-56
2022/12/27 06:38:41;;;;;;;14.20;12.00;;;;;;;2.98;100.00;99421.23;1734531;81;21091;-56
2022/12/27 06:41:11;;;;;;;16.67;11.70;;;;;;;2.99;100.00;99419.00;1736386;81;21373;-56
2022/12/27 06:43:37;;;;;;;14.67;9.63;;;;;;;3.01;100.00;99421.17;1739128;81;21720;-58
2022/12/27 06:46:09;;;;;;;13.43;10.20;;;;;;;3.05;100.00;99418.00;1738095;81;21514;-55
2022/12/27 06:48:36;;;;;;;16.73;11.13;;;;;;;3.08;100.00;99413.05;1743293;81;21060;-56
2022/12/27 06:51:07;;;;;;;14.10;10.90;;;;;;;3.09;100.00;99413.02;1739442;81;21104;-56
2022/12/27 06:53:37;;;;;;;17.33;11.27;;;;;;;3.13;100.00;99420.48;1738425;81;21178;-57
2022/12/27 06:56:06;;;;;;;18.07;10.77;;;;;;;3.15;100.00;99424.83;1735689;81;21906;-56
2022/12/27 06:58:32;;;;;;;14.03;10.97;;;;;;;3.17;100.00;99424.34;1734894;81;21073;-56
2022/12/27 07:01:09;;;;;;;15.43;12.17;;;;;;;3.22;100.00;99422.92;1743408;81;21037;-59
2022/12/27 07:03:37;;;;;;;20.63;12.57;;;;;;;3.24;100.00;99417.96;1737302;81;21593;-58
2022/12/27 07:06:05;;;;;;;15.83;12.50;;;;;;;3.28;100.00;99418.32;1734041;81;21086;-56
2022/12/27 07:08:31;;;;;;;17.37;12.60;;;;;;;3.28;100.00;99414.33;1737340;81;21783;-57
2022/12/27 07:11:02;;;;;;;17.30;12.57;;;;;;;3.28;100.00;99409.02;1732196;81;21179;-55
2022/12/27 07:13:28;;;;;;;18.13;12.00;;;;;;;3.32;100.00;99408.46;1733878;81;21060;-57
2022/12/27 07:15:55;;;;;;;19.17;12.07;;;;;;;3.33;100.00;99407.10;1697077;81;21485;-56
2022/12/27 07:18:21;;;;;;;16.07;12.77;;;;;;;3.35;100.00;99401.75;1734796;81;21724;-56
2022/12/27 07:20:48;;;;;;;18.83;13.50;;;;;;;3.38;100.00;99401.23;1733629;81;23163;-58
2022/12/27 07:23:14;;;;;;;18.00;13.50;;;;;;;3.40;100.00;99407.85;1733541;81;21557;-58
2022/12/27 07:25:41;;;;;;;21.43;13.57;;;;;;;3.41;100.00;99406.91;1736076;81;21080;-55
2022/12/27 07:28:07;;;;;;;16.67;12.87;;;;;;;3.42;100.00;99402.01;1741795;81;21079;-56
2022/12/27 07:30:41;;;;;;;20.70;14.00;;;;;;;3.45;100.00;99401.06;1736301;81;22251;-55
2022/12/27 07:33:08;;;;;;;25.83;14.53;;;;;;;3.47;100.00;99403.24;1742067;81;21803;-56
2022/12/27 07:38:19;;;;;;;53.07;21.43;;;;;;;3.52;100.00;99370.72;1794574;78;22536;-58
2022/12/27 07:40:45;;;;;;;68.33;27.73;;;;;;;3.54;100.00;99399.51;1771542;80;21108;-57
2022/12/27 07:43:11;;;;;;;52.63;22.60;;;;;;;3.55;100.00;99399.47;1770687;79;21846;-57
2022/12/27 07:45:38;;;;;;;30.13;15.47;;;;;;;3.57;100.00;99401.65;1772613;79;20979;-56
2022/12/27 07:48:05;;;;;;;34.67;18.97;;;;;;;3.59;100.00;99405.58;1771762;80;20997;-57
2022/12/27 07:50:31;;;;;;;36.77;20.10;;;;;;;3.60;100.00;99408.66;1773152;80;20954;-56
2022/12/27 07:52:57;;;;;;;29.53;19.20;;;;;;;3.64;100.00;99410.34;1763853;80;21562;-58
2022/12/27 07:55:23;;;;;;;23.23;15.90;;;;;;;3.67;100.00;99411.58;1776929;79;21785;-56
2022/12/27 07:57:50;;;;;;;23.60;14.60;;;;;;;3.68;100.00;99408.00;1773083;79;21115;-58
2022/12/27 08:00:17;;;;;;;19.37;13.87;;;;;;;3.70;100.00;99410.17;1754598;80;20975;-57
2022/12/27 08:02:45;;;;;;;21.77;15.23;;;;;;;3.72;100.00;99412.34;1751688;80;20982;-57
2022/12/27 08:05:12;;;;;;;20.83;14.60;;;;;;;3.73;100.00;99406.11;1717036;81;21045;-60
2022/12/27 08:07:38;;;;;;;18.97;13.93;;;;;;;3.77;100.00;99403.77;1715242;81;21777;-58
2022/12/27 08:10:07;;;;;;;19.77;14.47;;;;;;;3.79;100.00;99404.16;1685757;83;21121;-57
2022/12/27 08:12:34;;;;;;;19.13;14.27;;;;;;;3.84;100.00;99412.46;1702382;82;21023;-60
2022/12/27 08:15:01;;;;;;;18.40;13.63;;;;;;;3.88;100.00;99408.82;1711617;82;20989;-59
2022/12/27 08:17:31;;;;;;;21.23;15.27;;;;;;;3.92;100.00;99411.34;1679429;82;21037;-58
2022/12/27 08:19:57;;;;;;;23.37;15.27;;;;;;;3.96;100.00;99406.37;1671316;83;21824;-58
2022/12/27 08:22:23;;;;;;;23.03;15.17;;;;;;;4.00;100.00;99408.02;1711249;81;21070;-57
2022/12/27 08:24:50;;;;;;;21.40;14.60;;;;;;;4.04;100.00;99415.02;1700067;82;21226;-58
2022/12/27 08:27:21;;;;;;;24.00;15.50;;;;;;;4.07;100.00;99408.29;1698722;82;21568;-57
2022/12/27 08:29:48;;;;;;;31.70;18.13;;;;;;;4.11;100.00;99409.06;1697043;82;21045;-60
2022/12/27 08:32:15;;;;;;;43.23;19.03;;;;;;;4.13;100.00;99402.78;1698126;82;23049;-59
2022/12/27 08:34:41;;;;;;;57.00;23.23;;;;;;;4.16;100.00;99394.72;1701278;83;21720;-59
2022/12/27 08:37:08;;;;;;;55.50;22.60;;;;;;;4.21;100.00;99401.69;1694754;82;21124;-57
2022/12/27 08:39:34;;;;;;;62.07;24.67;;;;;;;4.26;100.00;99410.41;1683718;83;21152;-59
2022/12/27 08:42:01;;;;;;;61.97;24.70;;;;;;;4.27;100.00;99394.39;1686082;83;21466;-58
2022/12/27 08:44:27;;;;;;;52.90;22.97;;;;;;;4.30;100.00;99388.98;1736817;80;21967;-57
2022/12/27 08:46:54;;;;;;;43.00;21.10;;;;;;;4.36;100.00;99394.13;1730723;81;21073;-57
2022/12/27 08:49:21;;;;;;;33.33;18.17;;;;;;;4.39;100.00;99387.85;1730092;81;21093;-57
2022/12/27 08:51:47;;;;;;;36.27;19.43;;;;;;;4.42;100.00;99385.11;1731081;81;21760;-57
2022/12/27 08:54:14;;;;;;;31.33;16.77;;;;;;;4.46;100.00;99388.08;1692975;82;21160;-59
2022/12/27 08:56:41;;;;;;;26.60;16.77;;;;;;;4.51;100.00;99379.02;1735122;81;23378;-58
2022/12/27 08:59:07;;;;;;;30.87;16.67;;;;;;;4.55;100.00;99373.16;1728165;80;21038;-59
2022/12/27 09:01:34;;;;;;;29.30;17.50;;;;;;;4.59;100.00;99364.16;1732247;80;21046;-60
2022/12/27 09:04:00;;;;;;;27.33;17.80;;;;;;;4.64;100.00;99356.00;1728422;80;21050;-57
2022/12/27 09:06:27;;;;;;;28.40;18.00;;;;;;;4.70;100.00;99350.47;1730397;81;22257;-58
2022/12/27 09:08:54;;;;;;;24.03;16.90;;;;;;;4.74;100.00;99346.81;1734321;81;21839;-59
2022/12/27 09:11:27;;;;;;;25.63;17.60;;;;;;;4.78;100.00;99344.44;1733722;80;21088;-57
2022/12/27 09:13:53;;;;;;;26.97;17.83;;;;;;;4.82;100.00;99340.77;1734233;80;21049;-59
2022/12/27 09:16:23;;;;;;;19.27;13.43;;;;;;;4.87;100.00;99334.83;1735787;80;21038;-59
2022/12/27 09:18:52;;;;;;;22.90;15.90;;;;;;;4.90;100.00;99340.07;1734473;80;21057;-59
2022/12/27 09:21:21;;;;;;;20.33;14.13;;;;;;;4.95;100.00;99342.12;1736164;80;22571;-57
2022/12/27 09:23:48;;;;;;;22.83;15.57;;;;;;;5.00;100.00;99349.53;1698252;82;21504;-57
2022/12/27 09:26:18;;;;;;;21.62;13.80;;;;;;;5.05;100.00;99348.03;1730845;80;21649;-60
2022/12/27 09:28:45;;;;;;;20.40;14.47;;;;;;;5.09;100.00;99350.57;1732985;81;21129;-58
2022/12/27 09:31:12;;;;;;;22.40;14.97;;;;;;;5.14;100.00;99353.08;1734938;81;21152;-59
2022/12/27 09:33:40;;;;;;;21.90;13.83;;;;;;;5.17;100.00;99352.53;1733598;81;23373;-57
2022/12/27 09:36:15;;;;;;;20.60;13.03;;;;;;;5.21;100.00;99346.61;1697669;82;21042;-58
2022/12/27 09:38:41;;;;;;;22.50;15.38;;;;;;;5.25;100.00;99343.80;1724037;81;21057;-57
2022/12/27 09:41:36;;;;;;;22.55;14.50;;;;;;;5.30;100.00;99344.97;1726476;81;21077;-57
2022/12/27 09:44:24;;;;;;;22.80;13.13;;;;;;;5.35;100.00;99343.50;1721198;81;21088;-58
2022/12/27 09:46:57;;;;;;;20.20;13.80;;;;;;;5.42;100.00;99337.02;1708044;81;21840;-59
2022/12/27 09:49:34;;;;;;;24.50;15.23;;;;;;;5.46;100.00;99342.19;1678071;82;21124;-59
2022/12/27 09:52:08;;;;;;;19.85;14.73;;;;;;;5.49;100.00;99335.89;1726090;81;21239;-58
2022/12/27 09:54:45;;;;;;;22.27;14.55;;;;;;;5.52;100.00;99340.67;1729038;81;28983;-59
2022/12/27 09:57:25;;;;;;;25.12;16.30;;;;;;;5.55;100.00;99331.66;1728354;81;21653;-60
2022/12/27 09:59:57;;;;;;;25.23;16.35;;;;;;;5.57;100.00;99337.83;1729068;81;22130;-57
2022/12/27 10:02:25;;;;;;;22.22;15.93;;;;;;;5.59;100.00;99330.19;1725841;81;21300;-57
2022/12/27 10:04:53;;;;;;;23.55;15.85;;;;;;;5.63;100.00;99340.28;1732624;81;20999;-58
2022/12/27 10:08:12;;;;;;;21.60;13.80;;;;;;;5.66;100.00;99338.84;1726757;81;21705;-57
2022/12/27 10:11:34;;;;;;;19.25;13.38;;;;;;;5.68;100.00;99333.88;1727392;81;21118;-57
2022/12/27 10:13:46;;;;;;;20.88;13.62;;;;;;;5.69;100.00;99332.95;1721253;81;21845;-57
2022/12/27 10:16:30;;;;;;;23.75;15.25;;;;;;;5.71;100.00;99336.88;1724038;81;21088;-57
2022/12/27 10:19:17;;;;;;;24.55;15.40;;;;;;;5.74;100.00;99340.78;1726856;81;21046;-59
2022/12/27 10:22:04;;;;;;;22.93;14.50;;;;;;;5.78;100.00;99338.43;1724392;81;21037;-58
2022/12/27 10:24:40;;;;;;;20.92;13.30;;;;;;;5.82;100.00;99337.37;1732423;81;21054;-57
2022/12/27 10:27:23;;;;;;;21.05;13.95;;;;;;;5.85;100.00;99335.07;1726487;81;23260;-58
2022/12/27 10:29:52;;;;;;;19.65;12.88;;;;;;;5.86;100.00;99334.14;1711737;81;21302;-56
2022/12/27 10:32:18;;;;;;;20.25;12.73;;;;;;;5.88;100.00;99333.17;1692483;83;21136;-58
2022/12/27 10:34:44;;;;;;;19.27;11.75;;;;;;;5.89;100.00;99322.91;1725914;81;21258;-57
2022/12/27 10:37:15;;;;;;;17.90;12.28;;;;;;;5.91;100.00;99334.41;1727374;80;21096;-56
2022/12/27 10:39:42;;;;;;;15.90;11.75;;;;;;;5.93;100.00;99331.23;1744208;80;21766;-58
2022/12/27 10:42:36;;;;;;;18.15;12.10;;;;;;;5.93;100.00;99332.56;1746528;80;21399;-57
2022/12/27 10:45:35;;;;;;;18.25;12.37;;;;;;;5.95;100.00;99330.72;1720423;81;21025;-57
2022/12/27 10:48:21;;;;;;;15.32;10.05;;;;;;;6.00;100.00;99328.73;1738265;80;20991;-59
2022/12/27 10:50:56;;;;;;;17.50;11.93;;;;;;;6.02;100.00;99328.69;1751904;80;21033;-58
2022/12/27 10:53:41;;;;;;;18.73;12.47;;;;;;;6.05;100.00;99333.90;1750367;80;21789;-57
2022/12/27 10:56:32;;;;;;;18.00;11.48;;;;;;;6.07;100.00;99332.05;1705096;81;21443;-56
2022/12/27 10:59:15;;;;;;;18.48;12.60;;;;;;;6.10;100.00;99333.29;1715895;82;20963;-57
2022/12/27 11:01:45;;;;;;;17.95;12.63;;;;;;;6.12;100.00;99326.09;1695150;83;21017;-56
2022/12/27 11:04:20;;;;;;;18.55;11.73;;;;;;;6.15;100.00;99321.08;1696147;82;21053;-57
2022/12/27 11:07:00;;;;;;;18.67;11.85;;;;;;;6.16;100.00;99317.48;1688787;83;21029;-57
2022/12/27 11:09:37;;;;;;;17.15;11.18;;;;;;;6.17;100.00;99312.09;1690656;83;21225;-56
2022/12/27 11:12:22;;;;;;;15.60;10.15;;;;;;;6.22;100.00;99310.56;1687706;82;20986;-59
2022/12/27 11:15:03;;;;;;;19.25;12.15;;;;;;;6.24;100.00;99310.05;1689679;82;21406;-59
2022/12/27 11:17:39;;;;;;;22.13;13.48;;;;;;;6.23;100.00;99302.48;1690648;83;21101;-57
2022/12/27 11:20:31;;;;;;;21.25;12.55;;;;;;;6.23;100.00;99304.29;1693343;83;22465;-57
2022/12/27 11:23:14;;;;;;;19.90;13.08;;;;;;;6.22;100.00;99310.56;1689248;83;21097;-58
2022/12/27 11:25:57;;;;;;;21.65;12.33;;;;;;;6.21;100.00;99303.50;1688884;83;21069;-57
2022/12/27 11:28:53;;;;;;;22.67;12.85;;;;;;;6.21;100.00;99304.34;1688016;83;21536;-57
2022/12/27 11:31:43;;;;;;;17.95;11.35;;;;;;;6.20;100.00;99289.27;1689693;83;21072;-58
2022/12/27 11:34:34;;;;;;;20.70;12.58;;;;;;;6.19;100.00;99295.53;1687218;83;23281;-57
2022/12/27 11:37:14;;;;;;;17.70;11.20;;;;;;;6.17;100.00;99291.17;1693528;83;21183;-55
2022/12/27 11:39:46;;;;;;;22.82;12.68;;;;;;;6.17;100.00;99296.05;1681862;83;21102;-57
2022/12/27 11:42:43;;;;;;;19.85;13.40;;;;;;;6.15;100.00;99297.91;1679847;83;21529;-55
2022/12/27 11:45:24;;;;;;;21.77;13.62;;;;;;;6.14;100.00;99294.81;1730509;81;21050;-57
2022/12/27 11:48:01;;;;;;;21.62;14.03;;;;;;;6.15;100.00;99299.70;1701614;82;21755;-56
2022/12/27 11:50:34;;;;;;;24.40;14.68;;;;;;;6.14;100.00;99308.64;1734002;81;21062;-57
2022/12/27 11:53:29;;;;;;;22.48;13.32;;;;;;;6.13;100.00;99305.09;1728483;81;21561;-57
2022/12/27 11:56:19;;;;;;;;;;;;;;;6.16;100.00;99298.77;1734512;81;21669;-59
2022/12/27 11:58:59;;;;;;;25.43;13.98;;;;;;;6.14;100.00;99302.83;1736074;80;20621;-55
2022/12/27 12:01:40;;;;;;;25.43;13.22;;;;;;;6.14;100.00;99293.94;1726772;80;21871;-55
2022/12/27 12:04:41;;;;;;;26.40;15.10;;;;;;;6.16;100.00;99276.06;1727141;81;21255;-55
2022/12/27 12:07:28;;;;;;;22.77;13.22;;;;;;;6.17;100.00;99276.01;1688788;82;21061;-54
2022/12/27 12:10:29;;;;;;;24.23;14.87;;;;;;;6.18;100.00;99275.55;1727143;80;21038;-57
2022/12/27 12:13:49;;;;;;;29.37;16.00;;;;;;;6.22;100.00;99294.52;1726518;81;21116;-56
2022/12/27 12:16:47;;;;;;;35.55;15.08;;;;;;;6.24;100.00;99287.33;1735610;81;21982;-57
2022/12/27 12:19:31;;;;;;;31.50;17.45;;;;;;;6.27;100.00;99293.44;1674603;83;21129;-56
2022/12/27 12:22:55;;;;;;;30.35;17.60;;;;;;;6.27;100.00;99300.13;1672179;83;21418;-58
2022/12/27 12:25:48;;;;;;;31.20;18.12;;;;;;;6.26;100.00;99301.05;1733178;81;21374;-57
2022/12/27 12:28:55;;;;;;;37.67;19.30;;;;;;;6.28;100.00;99303.67;1726433;80;22630;-58
2022/12/27 12:31:54;;;;;;;28.55;17.87;;;;;;;6.29;100.00;99293.39;1741261;82;21791;-56
2022/12/27 12:34:48;;;;;;;32.20;18.65;;;;;;;6.30;100.00;99289.76;1738956;81;21508;-57
2022/12/27 12:37:47;;;;;;;33.00;18.37;;;;;;;6.29;100.00;99280.91;1736901;81;21057;-58
2022/12/27 12:40:36;;;;;;;41.90;19.60;;;;;;;6.29;100.00;99270.21;1732476;82;21040;-56
2022/12/27 12:43:36;;;;;;;40.40;19.15;;;;;;;6.30;100.00;99279.06;1734748;82;21430;-56
2022/12/27 12:46:31;;;;;;;30.35;18.27;;;;;;;6.28;100.00;99279.16;1728983;81;22469;-55
2022/12/27 12:49:33;;;;;;;30.52;17.60;;;;;;;6.27;100.00;99296.58;1685523;83;21041;-58
2022/12/27 12:52:51;;;;;;;29.60;16.93;;;;;;;6.26;100.00;99298.38;1733617;81;21034;-56
2022/12/27 12:55:58;;;;;;;26.77;15.98;;;;;;;6.27;100.00;99298.79;1697755;82;21318;-55
2022/12/27 12:58:46;;;;;;;25.90;15.63;;;;;;;6.27;100.00;99304.59;1731114;81;21041;-56
2022/12/27 13:01:51;;;;;;;28.05;14.65;;;;;;;6.25;100.00;99303.31;1688167;83;21805;-57
2022/12/27 13:05:00;;;;;;;26.35;15.95;;;;;;;6.25;100.00;99305.98;1727758;81;22259;-57
2022/12/27 13:07:44;;;;;;;24.45;15.38;;;;;;;6.24;100.00;99301.56;1732412;81;21042;-55
2022/12/27 13:30:21;;;;;;;20.23;13.30;;;;;;;6.49;100.00;99289.92;1859797;76;22136;-54
2022/12/27 13:33:19;;;;;;;23.10;12.88;;;;;;;6.52;100.00;99317.43;1829000;76;21507;-54
2022/12/27 13:36:23;;;;;;;19.12;12.05;;;;;;;6.52;100.00;99319.23;1823298;76;21835;-54
2022/12/27 13:39:05;;;;;;;14.47;9.45;;;;;;;6.51;100.00;99312.14;1772353;78;21204;-54
2022/12/27 13:41:57;;;;;;;15.85;9.60;;;;;;;6.51;100.00;99314.81;1759371;80;21068;-54
2022/12/27 13:44:48;;;;;;;9.33;7.33;;;;;;;6.50;100.00;99324.63;1758696;80;21453;-54
2022/12/27 13:47:41;;;;;;;9.63;7.45;;;;;;;6.49;100.00;99318.88;1760982;80;21052;-56
2022/12/27 13:50:39;;;;;;;9.93;6.72;;;;;;;6.46;100.00;99314.50;1759946;80;22491;-53
2022/12/27 13:53:42;;;;;;;10.45;7.60;;;;;;;6.44;100.00;99316.86;1756383;80;22093;-53
2022/12/27 13:56:48;;;;;;;9.05;6.70;;;;;;;6.44;100.00;99315.05;1763092;80;20981;-56
2022/12/27 13:59:42;;;;;;;8.28;6.20;;;;;;;6.44;100.00;99307.03;1758658;80;20994;-55
2022/12/27 14:02:43;;;;;;;7.37;5.70;;;;;;;6.45;100.00;99308.78;1768246;79;21021;-55
2022/12/27 14:05:51;;;;;;;6.95;4.37;;;;;;;6.44;100.00;99319.53;1761735;79;21788;-52
2022/12/27 14:08:42;;;;;;;7.85;4.75;;;;;;;6.42;100.00;99317.38;1760897;79;21018;-53
2022/12/27 14:11:37;;;;;;;6.30;4.87;;;;;;;6.41;100.00;99320.97;1765128;80;20966;-55
2022/12/27 14:14:03;;;;;;;6.30;4.90;;;;;;;6.41;100.00;99318.30;1768496;80;21503;-55